Time;durP1;ratioP1;P1;durP2;ratioP2;P2;SDS_P1;SDS_P2;PMS_P1;PMS_P2;Temp;Humidity;BMP_temperature;BMP_pressure;BME280_temperature;BME280_humidity;BME280_pressure;Samples;Min_cycle;Max_cycle;Signal;HPM_P1;HPM_P2
2023/04/16 04:30:15;;;;;;;8.05;4.55;;;9.20;72.00;;;;;;6020097;23;20021;-76
2023/04/16 04:32:41;;;;;;;7.68;4.70;;;9.10;72.20;;;;;;4931029;29;20099;-78
2023/04/16 04:35:07;;;;;;;7.28;4.88;;;9.00;72.40;;;;;;4935750;29;20048;-78
2023/04/16 04:37:32;;;;;;;8.02;4.47;;;9.00;72.70;;;;;;4930410;29;20411;-78
2023/04/16 04:39:58;;;;;;;8.55;5.28;;;9.00;72.70;;;;;;4919539;29;20483;-78
2023/04/16 04:42:23;;;;;;;8.68;4.68;;;9.00;72.70;;;;;;4919302;29;20038;-78
2023/04/16 04:44:49;;;;;;;8.45;5.07;;;9.00;72.60;;;;;;4919295;29;20025;-79
2023/04/16 04:47:15;;;;;;;9.90;4.97;;;9.00;72.40;;;;;;4918910;29;20044;-78
2023/04/16 04:49:40;;;;;;;7.72;4.68;;;8.90;72.50;;;;;;4919345;29;20805;-76
2023/04/16 04:52:07;;;;;;;8.20;4.80;;;8.90;72.40;;;;;;4935696;29;20083;-78
2023/04/16 04:54:32;;;;;;;8.48;5.05;;;8.90;72.40;;;;;;4938195;29;20032;-78
2023/04/16 04:56:58;;;;;;;8.10;5.07;;;8.90;72.30;;;;;;4921482;29;20479;-78
2023/04/16 04:59:24;;;;;;;7.80;5.07;;;8.90;72.50;;;;;;4919371;29;20150;-79
2023/04/16 05:01:50;;;;;;;9.73;5.13;;;8.90;72.50;;;;;;4928456;29;20028;-78
2023/04/16 05:04:16;;;;;;;7.95;4.82;;;9.00;72.10;;;;;;4947913;29;20111;-78
2023/04/16 05:06:42;;;;;;;11.82;5.40;;;9.00;72.30;;;;;;4943270;29;20036;-76
2023/04/16 05:09:10;;;;;;;7.47;4.60;;;9.00;72.30;;;;;;4940165;29;20023;-76
2023/04/16 05:11:37;;;;;;;8.38;4.43;;;8.90;72.30;;;;;;4933440;29;20031;-76
2023/04/16 05:14:03;;;;;;;7.00;4.53;;;8.90;72.30;;;;;;4957866;29;20197;-76
2023/04/16 05:16:29;;;;;;;7.80;4.55;;;8.90;72.40;;;;;;4951427;29;20040;-76
2023/04/16 05:18:55;;;;;;;8.05;5.00;;;8.90;72.30;;;;;;4930157;29;20028;-76
2023/04/16 05:21:21;;;;;;;8.95;5.20;;;8.90;72.60;;;;;;4957646;29;20513;-76
2023/04/16 05:23:46;;;;;;;10.90;4.93;;;8.80;72.80;;;;;;4957531;29;20027;-76
2023/04/16 05:26:12;;;;;;;7.88;5.13;;;8.80;72.80;;;;;;4955287;29;20031;-76
2023/04/16 05:28:38;;;;;;;7.35;4.72;;;8.80;72.90;;;;;;4919412;29;20028;-76
2023/04/16 05:31:03;;;;;;;7.45;4.38;;;8.80;72.80;;;;;;4927893;29;20064;-76
2023/04/16 05:33:29;;;;;;;7.93;5.43;;;8.80;72.70;;;;;;4921496;29;20127;-76
2023/04/16 05:35:54;;;;;;;15.10;7.18;;;8.80;72.50;;;;;;4938347;29;20043;-76
2023/04/16 05:38:20;;;;;;;10.50;6.30;;;8.80;72.80;;;;;;4947429;29;20031;-76
2023/04/16 05:40:46;;;;;;;11.10;5.35;;;8.80;73.10;;;;;;4919372;29;20029;-76
2023/04/16 05:43:11;;;;;;;6.93;4.88;;;8.80;72.60;;;;;;4917984;29;20099;-77
2023/04/16 05:45:39;;;;;;;7.22;5.22;;;8.90;72.60;;;;;;4921845;29;20039;-76
2023/04/16 05:48:07;;;;;;;9.63;6.38;;;8.90;72.70;;;;;;4923001;29;20032;-77
2023/04/16 05:50:33;;;;;;;8.90;5.40;;;8.90;72.70;;;;;;4927520;29;20483;-77
2023/04/16 05:52:59;;;;;;;7.55;5.00;;;9.00;72.60;;;;;;4941467;29;20045;-77
2023/04/16 05:55:25;;;;;;;12.30;6.35;;;9.10;72.50;;;;;;4924872;29;20046;-77
2023/04/16 05:57:50;;;;;;;12.00;6.47;;;9.20;72.50;;;;;;4941838;29;20068;-76
2023/04/16 06:00:16;;;;;;;8.38;6.05;;;9.20;72.30;;;;;;4928481;29;20044;-77
2023/04/16 06:02:42;;;;;;;9.40;5.70;;;9.20;72.10;;;;;;4922436;29;20036;-77
2023/04/16 06:05:07;;;;;;;7.50;4.93;;;9.30;72.10;;;;;;4930888;29;20039;-77
2023/04/16 06:07:33;;;;;;;8.85;5.43;;;9.30;72.50;;;;;;4922504;29;20028;-76
2023/04/16 06:09:58;;;;;;;8.02;5.05;;;9.30;72.90;;;;;;4922860;29;20044;-76
2023/04/16 06:12:24;;;;;;;8.80;5.07;;;9.40;73.10;;;;;;4938833;29;20039;-76
2023/04/16 06:14:50;;;;;;;10.68;5.72;;;9.50;73.20;;;;;;4922225;29;20488;-76
2023/04/16 06:17:15;;;;;;;7.90;5.03;;;9.50;73.80;;;;;;4921997;29;20028;-77
2023/04/16 06:19:41;;;;;;;8.40;5.35;;;9.50;74.10;;;;;;4922145;29;20036;-76
2023/04/16 06:22:07;;;;;;;10.70;4.53;;;9.50;74.20;;;;;;4922195;29;20056;-76
2023/04/16 06:24:32;;;;;;;9.25;5.15;;;9.50;74.40;;;;;;4921845;29;20115;-76
2023/04/16 06:26:58;;;;;;;6.70;5.05;;;9.60;74.50;;;;;;4922182;29;20031;-76
2023/04/16 06:29:24;;;;;;;7.97;4.47;;;9.60;74.20;;;;;;4922078;29;20033;-76
2023/04/16 06:31:49;;;;;;;6.03;4.10;;;9.70;74.10;;;;;;4924492;29;20044;-81
2023/04/16 06:34:15;;;;;;;8.82;5.07;;;9.70;73.50;;;;;;4923806;29;20035;-86
2023/04/16 06:36:41;;;;;;;9.40;5.35;;;9.80;73.20;;;;;;4922129;29;20035;-85
2023/04/16 06:39:06;;;;;;;7.93;5.15;;;9.80;73.20;;;;;;4921869;29;20163;-84
2023/04/16 06:41:32;;;;;;;14.68;7.80;;;9.80;73.30;;;;;;4922080;29;20384;-85
2023/04/16 06:43:57;;;;;;;11.13;7.43;;;9.80;72.40;;;;;;4940712;29;20027;-87
2023/04/16 06:46:23;;;;;;;15.52;7.63;;;9.90;71.80;;;;;;4939757;29;20034;-84
2023/04/16 06:48:49;;;;;;;10.85;6.50;;;10.00;71.80;;;;;;4934675;29;20115;-85
2023/04/16 06:51:15;;;;;;;10.05;7.00;;;10.10;72.40;;;;;;4921852;29;20047;-84
2023/04/16 06:53:41;;;;;;;18.48;11.18;;;10.20;71.50;;;;;;4920401;29;20480;-81
2023/04/16 06:56:07;;;;;;;13.45;9.35;;;10.20;71.30;;;;;;4920884;29;20035;-79
2023/04/16 06:58:33;;;;;;;17.95;10.05;;;10.30;71.40;;;;;;4919754;29;20024;-80
2023/04/16 07:00:58;;;;;;;13.30;7.80;;;10.30;71.80;;;;;;4917414;29;20061;-85
2023/04/16 07:03:25;;;;;;;14.65;9.07;;;10.30;72.00;;;;;;4924067;29;20036;-80
2023/04/16 07:05:50;;;;;;;10.25;8.55;;;10.40;72.20;;;;;;4938124;29;20027;-85
2023/04/16 07:08:16;;;;;;;11.95;8.13;;;10.50;72.30;;;;;;4920785;29;20130;-86
2023/04/16 07:10:42;;;;;;;10.30;7.05;;;10.60;71.60;;;;;;4940171;29;20098;-80
2023/04/16 07:13:07;;;;;;;13.00;6.53;;;10.80;71.20;;;;;;4935265;29;20036;-79
2023/04/16 07:15:33;;;;;;;10.30;6.70;;;11.00;71.40;;;;;;4921093;29;20067;-80
2023/04/16 07:17:59;;;;;;;7.45;5.07;;;11.20;71.30;;;;;;4921113;29;20032;-85
2023/04/16 07:20:24;;;;;;;8.45;6.05;;;11.30;71.50;;;;;;4919980;29;20438;-77
2023/04/16 07:22:50;;;;;;;8.90;7.07;;;11.60;70.00;;;;;;4919878;29;20060;-78
2023/04/16 07:25:15;;;;;;;8.43;6.47;;;11.90;69.70;;;;;;4920747;29;20032;-78
2023/04/16 07:27:41;;;;;;;9.07;6.78;;;12.20;69.70;;;;;;4931805;29;20035;-78
2023/04/16 07:30:08;;;;;;;10.20;6.55;;;12.50;68.70;;;;;;4928763;29;20503;-77
2023/04/16 07:32:34;;;;;;;8.25;5.55;;;13.00;67.80;;;;;;4922203;29;20028;-76
2023/04/16 07:34:59;;;;;;;10.00;5.55;;;13.30;66.50;;;;;;4922340;29;20094;-78
2023/04/16 07:37:25;;;;;;;7.82;5.32;;;13.40;66.50;;;;;;4933606;29;20028;-76
2023/04/16 07:39:51;;;;;;;7.55;5.30;;;13.50;66.20;;;;;;4919159;29;20031;-77
2023/04/16 07:42:17;;;;;;;7.78;5.13;;;13.60;66.40;;;;;;4939344;29;20079;-77
2023/04/16 07:44:43;;;;;;;8.50;4.97;;;13.60;66.00;;;;;;4923234;29;20015;-75
2023/04/16 07:47:08;;;;;;;7.35;4.90;;;13.80;65.50;;;;;;4938561;29;20451;-76
2023/04/16 07:49:34;;;;;;;5.43;4.30;;;14.40;64.70;;;;;;4921899;29;20016;-75
2023/04/16 07:52:00;;;;;;;6.93;4.93;;;14.60;63.70;;;;;;4938599;29;20049;-76
2023/04/16 07:54:25;;;;;;;6.22;4.57;;;16.20;60.50;;;;;;4935727;29;20614;-75
2023/04/16 07:56:51;;;;;;;5.85;3.95;;;17.90;54.60;;;;;;4939051;29;20032;-77
2023/04/16 07:59:17;;;;;;;6.63;5.05;;;19.80;50.90;;;;;;4922106;29;20087;-77
2023/04/16 08:01:42;;;;;;;6.13;4.95;;;21.50;45.40;;;;;;4929599;29;20028;-76
2023/04/16 08:04:08;;;;;;;6.28;4.50;;;22.50;42.80;;;;;;4921571;29;20506;-77
2023/04/16 08:06:33;;;;;;;6.05;4.55;;;23.60;41.10;;;;;;4937512;29;20455;-75
2023/04/16 08:08:59;;;;;;;6.43;5.18;;;24.70;39.10;;;;;;4919951;29;20039;-76
2023/04/16 08:11:25;;;;;;;5.25;4.60;;;25.30;36.70;;;;;;4919287;29;20059;-75
2023/04/16 08:13:50;;;;;;;5.97;4.50;;;26.40;36.70;;;;;;4938490;29;20037;-76
2023/04/16 08:16:16;;;;;;;5.20;4.70;;;26.30;33.40;;;;;;4926946;29;20043;-76
2023/04/16 08:18:41;;;;;;;4.90;3.60;;;26.60;33.20;;;;;;4918629;29;20020;-76
2023/04/16 08:21:07;;;;;;;5.88;3.95;;;27.00;33.50;;;;;;4919823;29;20033;-75
2023/04/16 08:23:33;;;;;;;6.22;4.22;;;26.10;32.70;;;;;;4915142;29;20099;-76
2023/04/16 08:26:00;;;;;;;5.30;3.92;;;26.80;34.20;;;;;;4936335;29;20525;-76
2023/04/16 08:28:25;;;;;;;5.30;4.63;;;27.90;31.00;;;;;;4920490;29;20023;-86
2023/04/16 08:30:51;;;;;;;5.30;3.88;;;27.40;30.70;;;;;;4937896;29;20083;-76
2023/04/16 08:33:17;;;;;;;4.32;3.90;;;27.10;30.00;;;;;;4935222;29;20036;-76
2023/04/16 08:35:42;;;;;;;4.65;3.50;;;27.00;30.60;;;;;;4935334;29;20032;-76
2023/04/16 08:38:11;;;;;;;4.38;3.10;;;27.60;31.00;;;;;;4935141;29;20107;-76
2023/04/16 08:40:38;;;;;;;4.93;3.00;;;27.90;30.00;;;;;;4920986;29;20019;-76
2023/04/16 08:43:09;;;;;;;3.83;2.83;;;28.70;30.60;;;;;;4938020;29;20549;-77
2023/04/16 08:45:36;;;;;;;4.43;3.25;;;28.60;27.60;;;;;;4935494;29;20058;-77
2023/04/16 08:48:04;;;;;;;5.05;2.95;;;28.80;28.70;;;;;;4921154;29;20016;-76
2023/04/16 08:50:33;;;;;;;3.33;2.70;;;29.50;28.40;;;;;;4936101;29;20059;-76
2023/04/16 08:53:02;;;;;;;;;;;29.10;29.00;;;;;;4938783;29;20057;-77
2023/04/16 08:55:38;;;;;;;4.40;3.35;;;28.80;27.90;;;;;;4920284;29;19970;-77
2023/04/16 08:58:14;;;;;;;5.22;2.70;;;28.00;28.60;;;;;;4938225;29;20039;-76
2023/04/16 09:00:40;;;;;;;6.47;3.38;;;27.20;29.90;;;;;;4936905;29;20036;-76
2023/04/16 09:03:07;;;;;;;5.57;3.80;;;28.00;30.50;;;;;;4917885;29;20028;-76
2023/04/16 09:05:33;;;;;;;4.45;3.13;;;28.60;29.70;;;;;;4920859;29;20098;-76
2023/04/16 09:07:58;;;;;;;5.55;3.70;;;28.50;28.30;;;;;;4920582;29;20032;-76
2023/04/16 09:10:27;;;;;;;4.00;2.90;;;28.50;28.10;;;;;;4939077;29;20136;-76
2023/04/16 09:12:56;;;;;;;4.78;3.03;;;27.90;28.20;;;;;;4937987;29;20027;-76
2023/04/16 09:15:24;;;;;;;5.10;3.80;;;26.50;31.30;;;;;;4937845;29;20058;-76
2023/04/16 09:17:50;;;;;;;3.95;3.13;;;27.40;31.00;;;;;;4934657;29;20012;-76
2023/04/16 09:20:15;;;;;;;4.53;2.78;;;27.80;28.90;;;;;;4939933;29;20020;-76
2023/04/16 09:22:42;;;;;;;3.78;2.88;;;28.20;29.50;;;;;;4941842;29;20079;-76
2023/04/16 09:25:09;;;;;;;4.93;3.55;;;28.40;27.40;;;;;;4939799;29;20035;-76
2023/04/16 09:27:36;;;;;;;3.92;2.95;;;28.00;27.70;;;;;;4924516;29;20027;-76
2023/04/16 09:30:37;;;;;;;3.83;3.03;;;27.90;29.20;;;;;;4939823;29;20671;-77
2023/04/16 09:33:23;;;;;;;5.60;2.95;;;28.00;29.40;;;;;;4844109;29;20069;-77
2023/04/16 09:35:51;;;;;;;5.93;2.88;;;27.50;29.20;;;;;;4934408;29;20036;-76
2023/04/16 09:38:18;;;;;;;5.72;3.15;;;26.90;29.70;;;;;;4941786;29;20028;-76
2023/04/16 09:40:46;;;;;;;4.93;3.60;;;26.30;29.80;;;;;;4941536;29;20024;-76
2023/04/16 09:43:16;;;;;;;4.10;3.00;;;25.50;29.30;;;;;;4921024;29;20027;-76
2023/04/16 09:45:52;;;;;;;6.05;3.40;;;24.80;30.60;;;;;;4941302;29;20110;-76
2023/04/16 09:48:31;;;;;;;7.43;3.05;;;24.30;30.90;;;;;;4939763;29;20051;-76
2023/04/16 09:50:57;;;;;;;3.70;2.60;;;24.30;31.40;;;;;;4940927;29;20075;-76
2023/04/16 09:53:25;;;;;;;7.05;3.03;;;24.60;32.20;;;;;;4941349;29;20039;-76
2023/04/16 09:55:51;;;;;;;8.50;3.25;;;25.00;31.50;;;;;;4938475;29;20087;-76
2023/04/16 09:58:18;;;;;;;5.22;3.22;;;24.90;32.10;;;;;;4938370;29;20056;-76
2023/04/16 10:00:44;;;;;;;7.88;3.70;;;25.10;31.30;;;;;;4923693;29;20030;-76
2023/04/16 10:03:10;;;;;;;4.65;2.80;;;25.60;30.40;;;;;;4923761;29;20028;-76
2023/04/16 10:05:36;;;;;;;5.72;3.58;;;26.00;31.00;;;;;;4940196;29;20090;-77
2023/04/16 10:08:01;;;;;;;4.07;3.03;;;26.30;30.10;;;;;;4940961;29;20024;-76
2023/04/16 10:10:28;;;;;;;5.95;3.60;;;26.60;31.10;;;;;;4924653;29;20490;-76
2023/04/16 10:12:55;;;;;;;7.07;3.60;;;26.60;28.40;;;;;;4940781;29;20379;-76
2023/04/16 10:15:21;;;;;;;4.40;3.15;;;26.30;28.60;;;;;;4938513;29;20032;-76
2023/04/16 10:17:47;;;;;;;5.40;3.15;;;25.90;29.70;;;;;;4937155;29;20038;-76
2023/04/16 10:20:14;;;;;;;4.47;3.05;;;25.30;29.80;;;;;;4940722;29;20020;-76
2023/04/16 10:22:40;;;;;;;6.78;3.78;;;24.50;32.50;;;;;;4923370;29;20031;-76
2023/04/16 10:25:06;;;;;;;5.97;3.60;;;24.00;32.60;;;;;;4940544;29;20035;-76
2023/04/16 10:27:32;;;;;;;6.32;3.90;;;23.50;32.90;;;;;;4939681;29;20047;-76
2023/04/16 10:29:59;;;;;;;7.65;3.67;;;23.20;33.20;;;;;;4939700;29;21203;-77
2023/04/16 10:32:27;;;;;;;7.88;4.03;;;22.80;33.70;;;;;;4939741;29;20055;-76
2023/04/16 10:34:54;;;;;;;7.28;3.90;;;22.20;32.60;;;;;;4938019;29;20030;-79
2023/04/16 10:37:29;;;;;;;5.20;3.58;;;22.00;33.70;;;;;;4938307;29;20075;-78
2023/04/16 10:39:55;;;;;;;9.35;3.50;;;22.00;34.10;;;;;;4935935;29;20383;-77
2023/04/16 10:42:20;;;;;;;7.40;4.25;;;22.00;34.40;;;;;;4923565;29;20031;-82
2023/04/16 10:44:46;;;;;;;7.38;4.15;;;21.80;33.20;;;;;;4923320;29;20062;-78
2023/04/16 10:47:13;;;;;;;6.35;4.00;;;21.70;34.60;;;;;;4922550;29;20024;-78
2023/04/16 10:49:39;;;;;;;9.48;4.60;;;21.60;34.40;;;;;;4923159;29;20023;-79
2023/04/16 10:52:08;;;;;;;10.18;4.65;;;21.40;34.20;;;;;;4917163;29;20046;-81
2023/04/16 10:54:35;;;;;;;8.20;4.75;;;21.30;35.40;;;;;;4922186;29;20027;-82
2023/04/16 10:57:06;;;;;;;7.97;3.50;;;21.00;35.40;;;;;;4940318;29;20032;-84
2023/04/16 10:59:38;;;;;;;7.47;3.53;;;21.00;37.30;;;;;;4933073;29;20115;-89
2023/04/16 11:02:11;;;;;;;6.63;4.18;;;21.00;37.60;;;;;;4923175;29;20028;-79
2023/04/16 11:04:39;;;;;;;7.97;4.40;;;20.80;37.20;;;;;;4926697;29;20038;-84
2023/04/16 11:07:12;;;;;;;10.43;4.70;;;20.20;37.90;;;;;;4940616;29;20023;-83
2023/04/16 11:10:01;;;;;;;7.50;4.07;;;19.90;38.80;;;;;;4932793;29;20031;-82
2023/04/16 11:12:45;;;;;;;5.47;3.10;;;20.10;40.00;;;;;;4928856;29;20039;-84
2023/04/16 11:15:11;;;;;;;8.65;4.07;;;20.30;40.80;;;;;;4935698;29;20035;-83
2023/04/16 11:17:47;;;;;;;7.43;4.20;;;20.40;39.40;;;;;;4938894;29;20035;-83
2023/04/16 11:20:26;;;;;;;6.22;4.32;;;20.40;40.50;;;;;;4940257;29;20079;-83
2023/04/16 11:22:54;;;;;;;7.05;3.83;;;20.20;38.20;;;;;;4930767;29;20029;-82
2023/04/16 11:25:24;;;;;;;6.55;4.50;;;19.90;39.60;;;;;;4925208;29;20043;-80
2023/04/16 11:27:51;;;;;;;7.45;4.30;;;19.90;39.80;;;;;;4925269;29;20036;-81
2023/04/16 11:30:18;;;;;;;9.27;4.57;;;19.90;39.80;;;;;;4939837;29;20031;-78
2023/04/16 11:32:44;;;;;;;6.85;3.67;;;20.00;40.60;;;;;;4927077;29;20078;-78
2023/04/16 11:35:17;;;;;;;8.88;4.88;;;20.10;40.10;;;;;;4939882;29;20032;-79
2023/04/16 11:37:44;;;;;;;8.50;4.50;;;20.00;39.80;;;;;;4939827;29;20016;-78
2023/04/16 11:40:10;;;;;;;8.00;4.93;;;19.90;40.40;;;;;;4914495;29;20028;-80
2023/04/16 11:42:40;;;;;;;6.40;4.00;;;20.00;39.00;;;;;;4923321;29;20027;-85
2023/04/16 11:45:10;;;;;;;8.15;4.72;;;20.10;41.70;;;;;;4918703;29;20071;-88
2023/04/16 11:47:44;;;;;;;9.30;4.80;;;19.80;38.40;;;;;;4920905;29;20063;-83
2023/04/16 11:50:21;;;;;;;9.40;4.95;;;20.00;41.00;;;;;;4920966;29;20036;-87
2023/04/16 11:52:48;;;;;;;7.13;4.40;;;19.90;40.00;;;;;;4923255;29;20390;-86
2023/04/16 11:55:14;;;;;;;9.07;4.25;;;20.00;40.80;;;;;;4943850;29;20036;-87
2023/04/16 11:57:40;;;;;;;9.18;4.88;;;20.00;40.10;;;;;;4943769;29;20546;-87
2023/04/16 12:00:12;;;;;;;9.15;3.72;;;20.00;39.20;;;;;;4924437;29;20138;-87
2023/04/16 12:02:40;;;;;;;6.78;4.43;;;19.90;41.80;;;;;;4943584;29;20111;-88
2023/04/16 12:05:26;;;;;;;8.68;5.38;;;19.70;40.80;;;;;;4942641;29;20462;-89
2023/04/16 12:07:52;;;;;;;8.45;4.70;;;19.70;39.60;;;;;;4928410;29;20107;-89
2023/04/16 12:10:17;;;;;;;6.85;4.68;;;19.60;39.00;;;;;;4943040;29;20070;-88
2023/04/16 12:12:43;;;;;;;8.07;5.60;;;19.70;39.40;;;;;;4927094;29;20036;-88
2023/04/16 12:15:09;;;;;;;8.23;4.28;;;19.70;38.50;;;;;;4928807;29;20031;-89
2023/04/16 12:17:35;;;;;;;10.18;4.93;;;19.80;40.80;;;;;;4923765;29;20051;-87
2023/04/16 12:20:09;;;;;;;9.25;5.18;;;19.60;39.30;;;;;;4928030;29;20024;-88
2023/04/16 12:22:43;;;;;;;8.25;4.50;;;19.30;40.40;;;;;;4940550;29;20030;-87
2023/04/16 12:25:16;;;;;;;8.48;5.47;;;19.40;41.10;;;;;;4928943;29;20037;-88
2023/04/16 12:27:50;;;;;;;7.95;4.97;;;19.40;39.80;;;;;;4922771;29;20031;-85
2023/04/16 12:30:22;;;;;;;8.77;4.97;;;19.20;41.40;;;;;;4947983;29;20036;-89
2023/04/16 12:32:50;;;;;;;8.50;5.13;;;18.90;40.90;;;;;;4931148;29;20051;-89
2023/04/16 12:35:30;;;;;;;11.00;5.70;;;18.90;42.20;;;;;;4924726;29;20035;-90
2023/04/16 12:37:56;;;;;;;6.35;4.32;;;18.90;41.50;;;;;;4928844;29;20020;-88
2023/04/16 12:40:22;;;;;;;5.78;4.40;;;19.00;41.80;;;;;;4920007;29;20031;-88
2023/04/16 12:42:48;;;;;;;10.95;4.65;;;19.30;41.60;;;;;;4915187;29;20032;-93
2023/04/16 12:45:13;;;;;;;6.15;3.90;;;19.60;41.60;;;;;;4938717;29;20024;-90
2023/04/16 12:47:39;;;;;;;8.15;4.75;;;19.60;42.00;;;;;;4922122;29;20058;-91
2023/04/16 12:50:06;;;;;;;7.25;4.20;;;19.70;40.90;;;;;;4922708;29;20031;-91
2023/04/16 12:52:31;;;;;;;7.25;4.43;;;20.00;41.10;;;;;;4923318;29;20218;-92
2023/04/16 12:54:57;;;;;;;9.02;3.97;;;20.10;39.90;;;;;;4922660;29;20091;-92
2023/04/16 12:57:27;;;;;;;7.88;4.20;;;20.20;40.30;;;;;;4921641;29;20028;-86
2023/04/16 12:59:53;;;;;;;;;;;20.50;39.20;;;;;;4922941;29;20027;-93
2023/04/16 13:02:19;;;;;;;5.28;3.13;;;20.80;39.60;;;;;;4922994;29;20370;-93
2023/04/16 13:04:45;;;;;;;5.72;3.33;;;21.00;39.70;;;;;;4923430;29;20400;-93
2023/04/16 13:07:10;;;;;;;9.85;3.97;;;21.00;38.90;;;;;;4921333;29;20031;-93
2023/04/16 13:09:36;;;;;;;5.07;3.22;;;20.80;37.30;;;;;;4904515;29;20032;-92
2023/04/16 13:12:02;;;;;;;5.75;3.58;;;20.70;38.10;;;;;;4914798;29;20063;-94
2023/04/16 13:14:27;;;;;;;8.45;4.20;;;20.50;38.60;;;;;;4934450;29;20062;-93
2023/04/16 13:16:53;;;;;;;8.75;3.42;;;20.40;37.80;;;;;;4940253;29;20032;-92
2023/04/16 13:19:20;;;;;;;7.07;3.00;;;20.30;37.70;;;;;;4923803;29;20754;-93
2023/04/16 13:21:45;;;;;;;7.40;3.22;;;20.40;39.70;;;;;;4923568;29;20016;-93
2023/04/16 13:24:11;;;;;;;4.55;2.90;;;20.60;39.00;;;;;;4923691;29;20506;-93
2023/04/16 13:26:37;;;;;;;7.15;3.55;;;20.60;39.60;;;;;;4924090;29;20087;-92
2023/04/16 13:29:02;;;;;;;5.88;4.03;;;20.60;41.60;;;;;;4921272;29;20032;-85
2023/04/16 13:31:28;;;;;;;7.13;3.63;;;20.30;37.70;;;;;;4937166;29;20051;-92
2023/04/16 13:33:54;;;;;;;7.95;3.10;;;20.10;38.50;;;;;;4922638;29;20412;-93
2023/04/16 13:36:19;;;;;;;5.13;3.20;;;20.20;38.40;;;;;;4922891;29;20039;-92
2023/04/16 13:38:45;;;;;;;6.60;3.33;;;20.20;37.80;;;;;;4922712;29;20027;-92
2023/04/16 13:41:11;;;;;;;8.38;3.78;;;20.10;38.50;;;;;;4922121;29;20035;-93
2023/04/16 13:43:36;;;;;;;6.88;3.40;;;20.20;38.90;;;;;;4922302;29;20444;-92
2023/04/16 13:46:02;;;;;;;7.32;3.33;;;19.90;39.30;;;;;;4923139;29;20028;-91
2023/04/16 13:48:28;;;;;;;5.13;3.53;;;19.90;38.40;;;;;;4923951;29;20035;-93
2023/04/16 13:50:54;;;;;;;6.32;2.55;;;20.00;38.90;;;;;;4925776;29;20376;-92
2023/04/16 13:53:20;;;;;;;6.45;2.85;;;19.90;41.60;;;;;;4927316;29;20103;-89
2023/04/16 13:55:48;;;;;;;5.18;2.92;;;20.20;40.80;;;;;;4923979;29;20114;-92
2023/04/16 13:58:14;;;;;;;7.20;2.75;;;20.40;40.00;;;;;;4923646;29;20038;-91
2023/04/16 14:00:41;;;;;;;5.97;2.58;;;20.70;39.40;;;;;;4920004;29;20030;-92
2023/04/16 14:03:07;;;;;;;10.52;3.47;;;20.70;39.60;;;;;;4915310;29;20555;-93
2023/04/16 14:05:33;;;;;;;4.30;2.30;;;20.50;39.80;;;;;;4922659;29;20076;-93
2023/04/16 14:07:58;;;;;;;7.28;3.10;;;20.80;40.00;;;;;;4924519;29;20043;-92
2023/04/16 14:10:24;;;;;;;5.35;3.53;;;20.90;39.60;;;;;;4926372;29;20035;-89
2023/04/16 14:12:53;;;;;;;5.38;3.42;;;21.20;38.10;;;;;;4908664;29;20039;-93
2023/04/16 14:15:19;;;;;;;6.63;3.40;;;21.30;38.10;;;;;;4922993;29;20106;-91
2023/04/16 14:17:52;;;;;;;6.78;2.90;;;21.30;37.30;;;;;;4920155;29;20102;-90
2023/04/16 14:20:20;;;;;;;6.93;3.38;;;21.30;37.30;;;;;;4920877;29;20032;-90
2023/04/16 14:22:46;;;;;;;6.80;3.33;;;21.30;37.30;;;;;;4899893;29;20036;-91
2023/04/16 14:25:15;;;;;;;5.65;3.28;;;21.20;37.10;;;;;;4923973;29;20027;-90
2023/04/16 14:27:40;;;;;;;4.75;2.90;;;21.30;36.30;;;;;;4912233;29;20035;-90
2023/04/16 14:30:09;;;;;;;8.10;2.90;;;21.20;38.20;;;;;;4923937;29;20046;-89
2023/04/16 14:32:35;;;;;;;3.72;2.60;;;21.20;37.70;;;;;;4924084;29;20062;-91
2023/04/16 14:35:00;;;;;;;6.47;2.85;;;21.30;38.20;;;;;;4932509;29;20024;-90
2023/04/16 14:37:26;;;;;;;5.10;2.97;;;21.30;39.10;;;;;;4922912;29;20039;-90
2023/04/16 14:39:52;;;;;;;10.68;3.75;;;21.40;39.20;;;;;;4922052;29;20078;-90
2023/04/16 14:42:18;;;;;;;4.70;2.90;;;21.40;38.60;;;;;;4918202;29;20123;-89
2023/04/16 14:44:44;;;;;;;4.78;2.83;;;21.30;38.90;;;;;;4918456;29;20059;-91
2023/04/16 14:47:10;;;;;;;5.07;3.22;;;21.30;38.70;;;;;;4923824;29;20039;-89
2023/04/16 14:49:36;;;;;;;5.78;2.97;;;21.20;38.00;;;;;;4930819;29;20517;-79
2023/04/16 14:52:04;;;;;;;5.40;3.15;;;21.20;38.10;;;;;;4921077;29;20035;-85
2023/04/16 14:54:31;;;;;;;5.47;2.83;;;21.10;38.60;;;;;;4914404;29;20039;-82
2023/04/16 14:56:57;;;;;;;9.73;3.38;;;21.20;38.40;;;;;;4909188;29;20455;-84
2023/04/16 14:59:22;;;;;;;5.45;3.30;;;21.20;39.20;;;;;;4921920;29;20035;-92
2023/04/16 15:01:48;;;;;;;5.63;2.47;;;21.40;39.00;;;;;;4923033;29;20024;-91
2023/04/16 15:04:14;;;;;;;4.35;2.38;;;21.60;39.30;;;;;;4931096;29;20036;-87
2023/04/16 15:06:40;;;;;;;4.05;2.70;;;21.90;39.80;;;;;;4935543;29;20036;-92
2023/04/16 15:09:06;;;;;;;5.68;2.67;;;22.00;39.50;;;;;;4919046;29;20037;-93
2023/04/16 15:11:32;;;;;;;4.03;2.40;;;22.00;37.50;;;;;;4926708;29;20098;-88
2023/04/16 15:13:58;;;;;;;3.97;2.90;;;22.00;38.10;;;;;;4927533;29;20035;-88
2023/04/16 15:16:24;;;;;;;4.68;2.80;;;21.90;37.30;;;;;;4921870;29;20036;-88
2023/04/16 15:18:53;;;;;;;6.28;2.85;;;21.80;37.40;;;;;;4931782;29;20032;-86
2023/04/16 15:21:18;;;;;;;6.97;2.75;;;21.80;38.80;;;;;;4931944;29;20024;-87
2023/04/16 15:23:44;;;;;;;4.05;2.70;;;21.70;37.90;;;;;;4934274;29;20028;-85
2023/04/16 15:26:10;;;;;;;7.88;2.75;;;21.70;38.20;;;;;;4919132;29;20043;-88
2023/04/16 15:28:35;;;;;;;4.85;2.95;;;21.60;38.40;;;;;;4932933;29;20130;-89
2023/04/16 15:31:01;;;;;;;5.30;3.03;;;21.60;38.30;;;;;;4925637;29;20893;-89
2023/04/16 15:33:27;;;;;;;4.95;2.90;;;21.70;37.80;;;;;;4924868;29;20577;-88
2023/04/16 15:35:57;;;;;;;4.20;2.80;;;21.70;38.00;;;;;;4922793;29;20123;-91
2023/04/16 15:38:23;;;;;;;5.22;2.95;;;21.70;37.20;;;;;;4936902;29;20458;-90
2023/04/16 15:40:49;;;;;;;7.55;2.60;;;21.30;36.50;;;;;;4920584;29;20031;-90
2023/04/16 15:43:15;;;;;;;5.78;3.00;;;21.30;38.30;;;;;;4908773;29;20027;-89
2023/04/16 15:45:41;;;;;;;4.95;2.20;;;21.30;38.70;;;;;;4922921;29;20096;-89
2023/04/16 15:48:06;;;;;;;4.13;2.60;;;21.30;38.90;;;;;;4939367;29;20039;-88
2023/04/16 15:50:33;;;;;;;5.40;2.88;;;21.50;39.00;;;;;;4921404;29;20023;-89
2023/04/16 15:53:07;;;;;;;3.05;2.13;;;21.50;39.10;;;;;;4938603;29;20043;-88
2023/04/16 15:55:34;;;;;;;3.08;2.00;;;21.60;39.10;;;;;;4921507;29;20023;-89
2023/04/16 15:58:00;;;;;;;3.08;1.92;;;21.60;38.80;;;;;;4919662;29;20030;-89
2023/04/16 16:00:26;;;;;;;3.53;2.53;;;21.70;38.50;;;;;;4925220;23;20032;-89
2023/04/16 16:02:52;;;;;;;3.53;2.20;;;21.60;37.90;;;;;;4937050;29;20084;-88
2023/04/16 16:05:17;;;;;;;4.18;2.25;;;21.60;38.30;;;;;;4933836;29;20039;-87
2023/04/16 16:07:43;;;;;;;3.55;2.20;;;21.40;37.90;;;;;;4937848;29;20038;-89
2023/04/16 16:10:12;;;;;;;4.78;2.25;;;21.40;37.90;;;;;;4936617;23;20098;-91
2023/04/16 16:12:40;;;;;;;5.32;2.53;;;21.40;38.70;;;;;;4935704;29;20047;-89
2023/04/16 16:15:07;;;;;;;3.85;2.67;;;21.40;37.70;;;;;;4918825;29;20042;-89
2023/04/16 16:17:32;;;;;;;3.83;2.22;;;21.30;38.10;;;;;;4909326;29;20019;-90
2023/04/16 16:19:59;;;;;;;5.13;2.15;;;21.10;38.60;;;;;;4927955;29;20404;-85
2023/04/16 16:22:25;;;;;;;4.45;2.53;;;20.90;38.40;;;;;;4937831;29;20051;-80
2023/04/16 16:24:51;;;;;;;5.38;2.58;;;20.80;38.80;;;;;;4922946;29;20469;-84
2023/04/16 16:27:17;;;;;;;6.78;2.47;;;20.50;38.60;;;;;;4919018;29;20028;-83
2023/04/16 16:29:43;;;;;;;5.25;2.88;;;20.50;39.40;;;;;;4926542;29;20023;-85
2023/04/16 16:32:09;;;;;;;7.50;2.58;;;20.00;38.50;;;;;;4936056;29;20110;-82
2023/04/16 16:34:35;;;;;;;4.75;2.65;;;19.80;39.40;;;;;;4935614;29;20028;-83
2023/04/16 16:37:01;;;;;;;5.07;2.58;;;19.80;39.10;;;;;;4930533;29;20023;-81
2023/04/16 16:39:27;;;;;;;3.97;2.25;;;19.80;39.90;;;;;;4935720;29;20032;-88
2023/04/16 16:41:53;;;;;;;6.50;2.70;;;19.80;41.10;;;;;;4936426;29;20362;-82
2023/04/16 16:44:19;;;;;;;6.70;2.40;;;19.70;40.10;;;;;;4927073;29;20063;-83
2023/04/16 16:46:46;;;;;;;3.63;2.25;;;19.80;41.10;;;;;;4931314;29;20035;-85
2023/04/16 16:49:12;;;;;;;3.40;2.22;;;19.80;41.50;;;;;;4934705;29;20448;-83
2023/04/16 16:51:38;;;;;;;6.32;2.50;;;19.80;41.30;;;;;;4936354;29;20123;-86
2023/04/16 16:54:04;;;;;;;3.45;2.22;;;19.70;40.80;;;;;;4919456;29;20082;-81
2023/04/16 16:56:30;;;;;;;4.80;2.22;;;19.80;41.60;;;;;;4936676;29;20039;-89
2023/04/16 16:58:56;;;;;;;4.50;2.50;;;19.80;40.70;;;;;;4920570;29;20036;-88
2023/04/16 17:01:24;;;;;;;3.75;2.28;;;19.70;40.10;;;;;;4934812;29;20139;-81
2023/04/16 17:03:50;;;;;;;7.25;2.25;;;19.70;41.00;;;;;;4937558;29;20508;-85
2023/04/16 17:06:18;;;;;;;5.45;2.50;;;19.70;40.80;;;;;;4937253;29;20063;-80
2023/04/16 17:08:45;;;;;;;3.67;2.03;;;19.70;41.30;;;;;;4938063;29;20055;-78
2023/04/16 17:11:11;;;;;;;3.30;1.77;;;19.70;41.90;;;;;;4930302;29;20070;-79
2023/04/16 17:13:39;;;;;;;2.67;1.90;;;19.60;42.00;;;;;;4936658;29;20039;-86
2023/04/16 17:16:05;;;;;;;5.47;2.55;;;19.60;42.80;;;;;;4935231;29;20443;-85